Time;durP1;ratioP1;P1;durP2;ratioP2;P2;SDS_P1;SDS_P2;PMS_P1;PMS_P2;Temp;Humidity;BMP_temperature;BMP_pressure;BME280_temperature;BME280_humidity;BME280_pressure;Samples;Min_cycle;Max_cycle;Signal;HPM_P1;HPM_P2
2022/09/16 00:00:45;;;;;;;1.73;1.63;;;21.50;74.90;;;;;;5059478;28;20563;-68
2022/09/16 00:03:12;;;;;;;1.92;1.67;;;21.50;74.90;;;;;;5059173;28;20308;-69
2022/09/16 00:05:50;;;;;;;1.70;1.60;;;21.50;74.80;;;;;;5058787;28;20197;-69
2022/09/16 00:08:18;;;;;;;1.80;1.70;;;21.50;74.60;;;;;;5059608;28;20197;-69
2022/09/16 00:10:44;;;;;;;2.00;1.90;;;21.50;74.80;;;;;;5075714;28;20194;-68
2022/09/16 00:13:14;;;;;;;1.60;1.50;;;21.50;74.80;;;;;;5058874;28;20190;-68
2022/09/16 00:15:46;;;;;;;1.50;1.45;;;21.50;74.60;;;;;;5060111;28;20179;-68
2022/09/16 00:18:13;;;;;;;1.75;1.65;;;21.50;74.50;;;;;;5059202;28;20183;-68
2022/09/16 00:20:56;;;;;;;1.60;1.50;;;21.50;74.60;;;;;;5060244;28;20198;-68
2022/09/16 00:23:22;;;;;;;1.40;1.40;;;21.50;74.60;;;;;;5058748;28;20218;-68
2022/09/16 00:25:53;;;;;;;1.40;1.27;;;21.50;74.60;;;;;;5070669;28;20200;-68
2022/09/16 00:28:21;;;;;;;1.30;1.30;;;21.50;74.50;;;;;;5051244;28;20186;-69
2022/09/16 00:30:48;;;;;;;1.50;1.40;;;21.50;74.50;;;;;;5053567;28;20206;-69
2022/09/16 00:33:14;;;;;;;1.48;1.42;;;21.50;74.60;;;;;;5040190;28;20243;-69
2022/09/16 00:35:40;;;;;;;1.30;1.30;;;21.50;74.50;;;;;;5055106;28;20187;-69
2022/09/16 00:38:06;;;;;;;1.30;1.30;;;21.50;74.60;;;;;;5022780;28;20193;-68
2022/09/16 00:40:33;;;;;;;1.50;1.40;;;21.50;74.50;;;;;;5055982;28;20201;-68
2022/09/16 00:42:59;;;;;;;1.50;1.40;;;21.50;74.50;;;;;;5039287;28;20175;-68
2022/09/16 00:45:30;;;;;;;1.70;1.60;;;21.50;74.50;;;;;;5039429;28;20218;-68
2022/09/16 00:48:08;;;;;;;1.52;1.42;;;21.50;74.50;;;;;;5038863;28;20255;-68
2022/09/16 00:50:50;;;;;;;1.23;1.17;;;21.50;74.50;;;;;;5038852;28;20183;-68
2022/09/16 00:53:30;;;;;;;1.40;1.30;;;21.50;74.50;;;;;;5038307;28;20228;-69
2022/09/16 00:55:59;;;;;;;1.42;1.33;;;21.50;74.50;;;;;;5055418;28;20196;-69
2022/09/16 00:59:10;;;;;;;1.35;1.25;;;21.50;74.50;;;;;;5050918;28;20190;-68
2022/09/16 01:01:37;;;;;;;1.42;1.33;;;21.50;74.50;;;;;;5058360;28;20210;-68
2022/09/16 01:04:13;;;;;;;2.17;1.60;;;21.40;74.50;;;;;;5057819;28;20203;-68
2022/09/16 01:06:39;;;;;;;1.60;1.50;;;21.50;74.50;;;;;;5075249;28;20174;-69
2022/09/16 01:09:05;;;;;;;1.05;1.05;;;21.50;74.50;;;;;;5057917;28;20281;-69
2022/09/16 01:11:31;;;;;;;1.50;1.40;;;21.50;74.50;;;;;;5059256;28;20229;-71
2022/09/16 01:14:51;;;;;;;1.33;1.30;;;21.40;74.50;;;;;;5045913;28;20195;-71
2022/09/16 01:17:06;;;;;;;1.50;1.40;;;21.50;74.50;;;;;;5053710;28;20191;-71
2022/09/16 01:19:43;;;;;;;1.25;1.15;;;21.40;74.40;;;;;;5037919;28;20247;-71
2022/09/16 01:22:41;;;;;;;1.73;1.25;;;21.40;74.40;;;;;;5021801;28;20222;-71
2022/09/16 01:25:35;;;;;;;1.60;1.50;;;21.40;74.40;;;;;;5054156;28;20219;-70
2022/09/16 01:28:37;;;;;;;1.42;1.40;;;21.40;74.40;;;;;;5065769;28;20656;-71
2022/09/16 01:31:30;;;;;;;1.50;1.40;;;21.40;74.40;;;;;;5057766;28;20245;-71
2022/09/16 01:34:20;;;;;;;1.40;1.30;;;21.40;74.40;;;;;;5057691;28;20266;-71
2022/09/16 01:37:14;;;;;;;1.90;1.60;;;21.40;74.40;;;;;;5057454;28;20189;-71
2022/09/16 01:39:40;;;;;;;1.50;1.40;;;21.40;74.60;;;;;;5057597;28;20191;-71
2022/09/16 01:42:26;;;;;;;1.38;1.10;;;21.40;74.40;;;;;;5057301;28;20202;-71
2022/09/16 01:45:15;;;;;;;1.70;1.30;;;21.50;74.60;;;;;;5057716;28;20593;-71
2022/09/16 01:47:49;;;;;;;1.30;1.30;;;21.40;74.40;;;;;;5057117;28;20187;-71
2022/09/16 01:50:39;;;;;;;1.23;1.23;;;21.40;74.40;;;;;;5050417;28;20184;-71
2022/09/16 01:53:24;;;;;;;1.30;1.20;;;21.40;74.50;;;;;;5055105;28;20590;-71
2022/09/16 01:55:56;;;;;;;1.40;1.30;;;21.40;74.40;;;;;;5036343;28;20178;-71
2022/09/16 01:58:33;;;;;;;1.42;1.33;;;21.40;74.40;;;;;;5036785;28;20183;-71
2022/09/16 02:01:14;;;;;;;1.10;1.10;;;21.40;74.40;;;;;;5054642;28;20203;-71
2022/09/16 02:03:48;;;;;;;1.05;1.05;;;21.40;74.40;;;;;;5036367;28;20218;-71
2022/09/16 02:06:22;;;;;;;1.13;1.13;;;21.40;74.50;;;;;;5037318;28;20257;-70
2022/09/16 02:08:57;;;;;;;1.40;1.30;;;21.40;74.50;;;;;;5054265;28;20179;-70
2022/09/16 02:11:24;;;;;;;1.33;1.23;;;21.40;74.40;;;;;;5054270;28;20202;-70
2022/09/16 02:14:20;;;;;;;1.50;1.40;;;21.40;74.40;;;;;;5038197;28;20182;-70
2022/09/16 02:17:01;;;;;;;1.38;1.27;;;21.40;74.40;;;;;;5037226;28;20187;-70
2022/09/16 02:20:04;;;;;;;1.00;1.00;;;21.40;74.40;;;;;;5053694;28;20194;-70
2022/09/16 02:22:42;;;;;;;1.10;1.10;;;21.40;74.40;;;;;;5044761;28;20223;-71
2022/09/16 02:25:10;;;;;;;1.30;1.30;;;21.40;74.40;;;;;;5016625;28;20724;-71
2022/09/16 02:27:40;;;;;;;1.08;1.08;;;21.40;74.40;;;;;;5020818;28;20188;-71
2022/09/16 02:30:15;;;;;;;1.10;1.10;;;21.40;74.40;;;;;;5033583;28;20190;-71
2022/09/16 02:32:50;;;;;;;1.10;1.10;;;21.40;74.30;;;;;;5033339;28;20183;-71
2022/09/16 02:35:19;;;;;;;1.42;1.33;;;21.40;74.30;;;;;;5033490;28;20187;-71
2022/09/16 02:37:54;;;;;;;1.42;1.10;;;21.40;74.40;;;;;;5000680;28;20188;-71
2022/09/16 02:40:49;;;;;;;1.33;1.27;;;21.40;75.10;;;;;;5050125;28;20259;-71
2022/09/16 02:43:16;;;;;;;1.02;1.02;;;21.40;74.00;;;;;;5013951;28;20196;-71
2022/09/16 02:45:58;;;;;;;1.17;1.10;;;21.40;74.30;;;;;;5016908;28;20671;-71
2022/09/16 02:49:06;;;;;;;1.48;1.38;;;21.40;74.20;;;;;;5031032;28;20667;-70
2022/09/16 02:52:20;;;;;;;1.25;1.20;;;21.40;74.40;;;;;;5042771;28;20222;-70
2022/09/16 02:54:54;;;;;;;1.50;1.40;;;21.40;74.30;;;;;;5053702;28;20230;-70
2022/09/16 02:57:20;;;;;;;1.17;1.17;;;21.40;74.20;;;;;;5049563;28;20254;-70
2022/09/16 02:59:46;;;;;;;1.42;1.33;;;21.40;74.20;;;;;;5039522;28;20179;-71
2022/09/16 03:02:12;;;;;;;1.45;1.30;;;21.40;74.20;;;;;;5049871;28;20211;-70
2022/09/16 03:04:38;;;;;;;1.38;1.27;;;21.40;74.20;;;;;;5035270;28;20211;-70
2022/09/16 03:07:08;;;;;;;1.00;1.00;;;21.30;74.00;;;;;;5034959;28;20237;-70
2022/09/16 03:09:40;;;;;;;1.17;1.17;;;21.40;74.20;;;;;;5035984;28;20187;-70
2022/09/16 03:12:26;;;;;;;1.30;1.20;;;21.40;74.10;;;;;;5035594;28;20203;-70
2022/09/16 03:15:35;;;;;;;1.42;1.33;;;21.40;74.10;;;;;;5034731;28;20214;-71
2022/09/16 03:18:20;;;;;;;1.10;1.10;;;21.40;74.10;;;;;;5034781;28;20184;-71
2022/09/16 03:21:16;;;;;;;1.40;1.27;;;21.40;74.10;;;;;;5036919;28;20218;-70
2022/09/16 03:24:11;;;;;;;1.50;1.40;;;21.40;74.10;;;;;;5063013;28;20206;-70
2022/09/16 03:26:51;;;;;;;1.30;1.20;;;21.40;74.10;;;;;;5072268;28;20261;-71
2022/09/16 03:29:52;;;;;;;1.50;1.40;;;21.40;74.90;;;;;;5055159;28;20183;-71
2022/09/16 03:32:29;;;;;;;1.30;1.27;;;21.40;74.10;;;;;;5055113;28;20694;-71
2022/09/16 03:35:04;;;;;;;1.08;1.08;;;21.40;74.20;;;;;;5056408;28;20655;-71
2022/09/16 03:37:34;;;;;;;1.13;1.10;;;21.30;73.90;;;;;;5054494;28;20195;-70
2022/09/16 03:40:08;;;;;;;1.23;1.10;;;21.30;74.00;;;;;;5072123;28;20190;-70
2022/09/16 03:42:41;;;;;;;1.00;1.00;;;21.30;73.90;;;;;;5055975;28;20297;-70
2022/09/16 03:45:15;;;;;;;1.20;1.20;;;21.30;73.90;;;;;;5055153;28;20207;-70
2022/09/16 03:47:43;;;;;;;1.52;1.42;;;21.30;73.90;;;;;;5055167;28;20171;-70
2022/09/16 03:50:09;;;;;;;1.33;1.30;;;21.30;74.00;;;;;;5052756;28;20178;-70
2022/09/16 03:52:35;;;;;;;1.48;1.38;;;21.40;74.10;;;;;;5059949;28;20288;-70
2022/09/16 03:55:00;;;;;;;1.25;1.20;;;21.30;74.00;;;;;;5054394;28;20228;-71
2022/09/16 03:57:27;;;;;;;1.15;1.15;;;21.40;74.10;;;;;;5054916;28;20187;-71
2022/09/16 03:59:53;;;;;;;1.42;1.33;;;21.30;74.00;;;;;;5055030;28;20228;-71
2022/09/16 04:02:18;;;;;;;1.45;1.35;;;21.30;74.00;;;;;;5055554;28;20214;-71
2022/09/16 04:04:45;;;;;;;1.40;1.30;;;21.30;74.00;;;;;;5055161;28;20275;-71
2022/09/16 04:07:10;;;;;;;1.27;1.17;;;21.40;74.10;;;;;;5054852;28;20248;-71
2022/09/16 04:09:36;;;;;;;1.33;1.23;;;21.30;74.00;;;;;;5055371;28;20600;-70
2022/09/16 04:12:03;;;;;;;1.30;1.20;;;21.30;73.90;;;;;;5071445;28;20209;-70
2022/09/16 04:14:29;;;;;;;1.38;1.30;;;21.30;74.00;;;;;;5055357;28;20665;-71
2022/09/16 04:16:54;;;;;;;1.00;1.00;;;21.30;74.00;;;;;;5054473;28;20187;-70
2022/09/16 04:19:20;;;;;;;1.20;1.10;;;21.30;74.00;;;;;;5055110;28;20241;-70
2022/09/16 04:21:46;;;;;;;1.25;1.15;;;21.30;74.00;;;;;;5046599;28;20203;-70
2022/09/16 04:24:12;;;;;;;1.10;1.08;;;21.30;74.00;;;;;;5041689;28;20636;-70
2022/09/16 04:26:38;;;;;;;1.20;1.10;;;21.30;73.90;;;;;;5035881;28;20240;-70
2022/09/16 04:29:03;;;;;;;1.27;1.27;;;21.40;74.80;;;;;;5039581;28;20184;-71
2022/09/16 04:31:29;;;;;;;1.25;1.25;;;21.30;74.00;;;;;;5040313;28;20206;-69
2022/09/16 04:33:55;;;;;;;1.50;1.40;;;21.30;74.00;;;;;;5039170;28;20191;-71
2022/09/16 04:36:21;;;;;;;1.10;1.10;;;21.30;74.00;;;;;;5038198;28;20191;-71
2022/09/16 04:38:48;;;;;;;1.30;1.30;;;21.30;73.90;;;;;;5055314;28;20187;-71
2022/09/16 04:41:24;;;;;;;1.50;1.40;;;21.30;74.00;;;;;;5038673;28;20701;-71
2022/09/16 04:43:52;;;;;;;1.80;1.70;;;21.30;74.00;;;;;;5021982;28;20250;-71
2022/09/16 04:46:18;;;;;;;1.40;1.30;;;21.30;74.00;;;;;;5038589;28;20229;-69
2022/09/16 04:48:49;;;;;;;1.60;1.50;;;21.30;74.00;;;;;;5039645;28;20175;-70
2022/09/16 04:51:15;;;;;;;1.50;1.40;;;21.30;73.90;;;;;;5060437;28;20244;-70
2022/09/16 04:53:42;;;;;;;1.40;1.30;;;21.30;74.00;;;;;;5066501;28;20189;-70
2022/09/16 04:56:23;;;;;;;1.50;1.40;;;21.30;73.90;;;;;;5041530;28;20187;-70
2022/09/16 04:58:57;;;;;;;1.20;1.10;;;21.30;74.00;;;;;;5040981;28;20174;-69
2022/09/16 05:01:26;;;;;;;1.60;1.50;;;21.30;74.00;;;;;;5059733;28;20202;-70
2022/09/16 05:03:56;;;;;;;1.40;1.30;;;21.30;74.00;;;;;;5058055;28;20221;-70
2022/09/16 05:06:25;;;;;;;1.30;1.20;;;21.30;73.90;;;;;;5058001;28;20265;-70
2022/09/16 05:08:53;;;;;;;1.38;1.38;;;21.30;74.00;;;;;;5074726;28;20178;-71
2022/09/16 05:11:27;;;;;;;1.40;1.30;;;21.30;73.90;;;;;;5055909;28;20297;-70
2022/09/16 05:13:57;;;;;;;1.50;1.40;;;21.30;74.00;;;;;;5056694;28;20171;-69
2022/09/16 05:16:23;;;;;;;1.58;1.48;;;21.30;74.00;;;;;;5036808;28;20192;-69
2022/09/16 05:18:53;;;;;;;1.67;1.58;;;21.30;74.00;;;;;;5017667;28;20195;-70
2022/09/16 05:21:24;;;;;;;1.60;1.50;;;21.30;74.00;;;;;;5051363;28;20218;-70
2022/09/16 05:23:51;;;;;;;1.48;1.38;;;21.30;74.00;;;;;;5065309;28;20206;-70
2022/09/16 05:30:23;;;;;;;1.52;1.40;;;21.30;73.90;;;;;;5041615;28;20202;-70
2022/09/16 05:32:53;;;;;;;1.58;1.45;;;21.30;74.00;;;;;;5032186;28;20679;-70
2022/09/16 05:35:19;;;;;;;1.73;1.63;;;21.30;74.00;;;;;;5053496;28;20214;-70
2022/09/16 05:37:44;;;;;;;1.50;1.40;;;21.30;74.00;;;;;;5036306;28;20202;-70
2022/09/16 05:40:10;;;;;;;1.45;1.33;;;21.30;74.00;;;;;;5053833;28;20199;-70
2022/09/16 05:42:36;;;;;;;1.60;1.50;;;21.30;74.10;;;;;;5037520;28;20206;-70
2022/09/16 05:45:02;;;;;;;1.40;1.30;;;21.30;74.10;;;;;;5054178;28;20219;-70
2022/09/16 05:47:27;;;;;;;1.50;1.40;;;21.30;74.10;;;;;;5036788;28;20188;-70
2022/09/16 05:49:53;;;;;;;1.50;1.40;;;21.30;74.10;;;;;;5038954;28;20262;-70
2022/09/16 05:52:19;;;;;;;1.30;1.20;;;21.30;74.00;;;;;;5022900;28;20207;-70
2022/09/16 05:54:45;;;;;;;1.48;1.38;;;21.30;74.10;;;;;;5054651;28;20187;-71
2022/09/16 05:57:11;;;;;;;1.67;1.58;;;21.30;74.00;;;;;;5057919;28;20183;-70
2022/09/16 05:59:38;;;;;;;1.73;1.63;;;21.30;74.00;;;;;;5057239;28;20263;-70
2022/09/16 06:02:03;;;;;;;1.60;1.50;;;21.30;74.10;;;;;;5048452;28;20211;-70
2022/09/16 06:04:29;;;;;;;1.42;1.33;;;21.30;74.00;;;;;;5038230;28;20218;-70
2022/09/16 06:06:55;;;;;;;1.52;1.40;;;21.30;74.10;;;;;;5036107;28;20183;-70
2022/09/16 06:09:23;;;;;;;1.70;1.60;;;21.30;74.00;;;;;;5053757;28;20222;-70
2022/09/16 06:11:52;;;;;;;1.65;1.52;;;21.30;74.10;;;;;;5037103;28;20278;-70
2022/09/16 06:14:21;;;;;;;1.40;1.30;;;21.30;74.20;;;;;;5038339;28;20266;-70
2022/09/16 06:16:47;;;;;;;2.05;1.50;;;21.30;74.20;;;;;;5037865;28;20175;-69
2022/09/16 06:19:16;;;;;;;1.70;1.60;;;21.30;74.20;;;;;;5036844;28;20191;-70
2022/09/16 06:21:44;;;;;;;1.60;1.50;;;21.30;74.10;;;;;;5045216;28;20221;-70
2022/09/16 06:24:11;;;;;;;2.05;1.70;;;21.30;74.10;;;;;;5036720;28;20298;-70
2022/09/16 06:26:40;;;;;;;1.80;1.70;;;21.30;74.20;;;;;;5036304;28;20211;-69
2022/09/16 06:29:07;;;;;;;2.45;2.25;;;21.30;74.20;;;;;;5054226;28;20255;-70
2022/09/16 06:31:36;;;;;;;1.60;1.50;;;21.30;74.20;;;;;;5053555;28;20234;-70
2022/09/16 06:34:04;;;;;;;1.70;1.60;;;21.30;74.30;;;;;;5020407;28;20218;-70
2022/09/16 06:36:34;;;;;;;1.90;1.80;;;21.30;74.20;;;;;;5016266;28;20188;-70
2022/09/16 06:39:00;;;;;;;1.50;1.40;;;21.30;74.30;;;;;;5033854;28;20199;-70
2022/09/16 06:41:26;;;;;;;1.65;1.55;;;21.30;74.30;;;;;;5018453;28;20203;-70
2022/09/16 06:43:52;;;;;;;1.60;1.50;;;21.30;74.20;;;;;;5018009;28;20294;-70
2022/09/16 06:46:25;;;;;;;1.77;1.67;;;21.30;74.30;;;;;;5033879;28;20207;-70
2022/09/16 06:48:55;;;;;;;1.73;1.63;;;21.30;74.30;;;;;;5033353;28;20188;-70
2022/09/16 06:51:30;;;;;;;2.85;1.60;;;21.30;74.20;;;;;;5052054;28;20202;-70
2022/09/16 06:54:05;;;;;;;1.73;1.63;;;21.30;74.30;;;;;;5048894;28;20192;-70
2022/09/16 06:56:34;;;;;;;2.13;1.95;;;21.30;74.30;;;;;;5056290;28;20300;-69
2022/09/16 06:59:00;;;;;;;1.90;1.70;;;21.30;74.30;;;;;;5056944;28;20189;-70
2022/09/16 07:01:29;;;;;;;1.85;1.75;;;21.30;74.30;;;;;;5056745;28;20206;-70
2022/09/16 07:03:57;;;;;;;1.90;1.80;;;21.30;74.30;;;;;;5056991;28;20571;-70
2022/09/16 07:06:26;;;;;;;1.75;1.65;;;21.30;74.30;;;;;;5057359;28;20274;-70
2022/09/16 07:08:53;;;;;;;2.08;1.80;;;21.30;74.30;;;;;;5057008;28;20178;-70
2022/09/16 07:11:22;;;;;;;1.70;1.60;;;21.30;74.30;;;;;;5058044;28;20202;-70
2022/09/16 07:13:49;;;;;;;2.17;1.80;;;21.30;74.30;;;;;;5048476;28;20192;-70
2022/09/16 07:16:24;;;;;;;1.67;1.58;;;21.30;74.30;;;;;;5035628;28;20179;-69
2022/09/16 07:18:56;;;;;;;2.28;1.65;;;21.30;74.30;;;;;;5035911;28;20186;-70
2022/09/16 07:21:27;;;;;;;1.75;1.65;;;21.30;74.30;;;;;;5042343;28;20209;-69
2022/09/16 07:23:58;;;;;;;1.58;1.48;;;21.30;74.30;;;;;;5060511;28;20219;-70
2022/09/16 07:26:28;;;;;;;1.80;1.70;;;21.30;74.20;;;;;;5050873;28;20199;-70
2022/09/16 07:28:58;;;;;;;2.03;1.83;;;21.30;74.20;;;;;;5036758;28;20246;-70
2022/09/16 07:31:29;;;;;;;1.60;1.50;;;21.30;74.30;;;;;;5035874;28;20261;-70
2022/09/16 07:33:57;;;;;;;1.98;1.88;;;21.30;74.30;;;;;;5018702;28;20187;-70
2022/09/16 07:36:26;;;;;;;2.42;1.70;;;21.30;74.30;;;;;;5034479;28;20180;-70
2022/09/16 07:38:57;;;;;;;2.10;1.90;;;21.30;74.30;;;;;;5035094;28;20230;-70
2022/09/16 07:41:27;;;;;;;1.83;1.73;;;21.30;74.30;;;;;;5011274;28;20684;-70
2022/09/16 07:43:57;;;;;;;2.10;1.67;;;21.30;74.30;;;;;;5045065;28;20207;-70
2022/09/16 07:46:26;;;;;;;1.80;1.70;;;21.30;74.30;;;;;;5070946;28;20187;-69
2022/09/16 07:48:53;;;;;;;1.83;1.70;;;21.30;74.30;;;;;;5071525;28;20171;-70
2022/09/16 07:51:22;;;;;;;1.58;1.48;;;21.30;74.30;;;;;;5054556;28;20306;-70
2022/09/16 07:53:54;;;;;;;1.98;1.70;;;21.30;74.20;;;;;;5056586;28;20617;-69
2022/09/16 07:56:24;;;;;;;1.50;1.40;;;21.30;74.20;;;;;;5055446;28;20194;-70
2022/09/16 07:58:51;;;;;;;1.73;1.63;;;21.30;74.00;;;;;;5056191;28;20270;-70
2022/09/16 08:01:17;;;;;;;1.52;1.42;;;21.30;74.00;;;;;;5056804;28;20210;-70
2022/09/16 08:03:44;;;;;;;1.23;1.20;;;21.30;74.10;;;;;;5075226;28;20229;-70
2022/09/16 08:06:20;;;;;;;2.60;1.40;;;21.30;74.00;;;;;;5043104;28;20179;-70
2022/09/16 08:08:46;;;;;;;1.60;1.50;;;21.30;74.00;;;;;;5021781;28;20654;-70
2022/09/16 08:11:14;;;;;;;1.70;1.60;;;21.30;74.10;;;;;;5018642;28;20200;-70
2022/09/16 08:13:42;;;;;;;1.42;1.33;;;21.30;74.00;;;;;;5026992;28;20186;-70
2022/09/16 08:16:12;;;;;;;1.55;1.45;;;21.30;74.10;;;;;;5037836;28;20183;-70
2022/09/16 08:18:39;;;;;;;1.35;1.20;;;21.30;74.00;;;;;;5038629;28;20270;-70
2022/09/16 08:21:20;;;;;;;2.42;1.83;;;21.30;73.90;;;;;;5038194;28;20249;-71
2022/09/16 08:23:47;;;;;;;1.50;1.40;;;21.30;74.00;;;;;;5021340;28;20279;-70
2022/09/16 08:26:15;;;;;;;1.60;1.42;;;21.30;73.90;;;;;;5054171;28;20183;-69
2022/09/16 08:28:43;;;;;;;1.65;1.42;;;21.30;73.90;;;;;;5038734;28;20273;-70
2022/09/16 08:31:09;;;;;;;1.35;1.25;;;21.30;74.70;;;;;;5021986;28;20718;-70
2022/09/16 08:33:38;;;;;;;1.40;1.30;;;21.30;73.90;;;;;;5039291;28;20262;-70
2022/09/16 08:36:10;;;;;;;1.60;1.50;;;21.30;74.00;;;;;;5037905;28;20206;-69
2022/09/16 08:38:36;;;;;;;1.27;1.20;;;21.30;73.90;;;;;;5038095;28;20281;-70
2022/09/16 08:41:39;;;;;;;1.60;1.50;;;21.30;73.90;;;;;;5037419;28;20219;-70
2022/09/16 08:44:43;;;;;;;1.55;1.45;;;21.30;73.90;;;;;;5029480;28;20207;-70
2022/09/16 08:47:27;;;;;;;1.55;1.45;;;21.30;74.00;;;;;;5037086;28;20195;-70
2022/09/16 08:49:55;;;;;;;1.50;1.40;;;21.30;73.90;;;;;;5038050;28;20255;-70
2022/09/16 08:52:31;;;;;;;1.92;1.48;;;21.30;73.90;;;;;;5037430;28;20214;-70
2022/09/16 08:55:09;;;;;;;1.27;1.13;;;21.30;73.80;;;;;;5054475;28;20183;-70
2022/09/16 08:58:00;;;;;;;1.10;1.10;;;21.30;73.90;;;;;;5054100;28;20190;-70
2022/09/16 09:00:26;;;;;;;1.80;1.42;;;21.30;73.80;;;;;;5038751;28;20255;-70
2022/09/16 09:03:07;;;;;;;1.40;1.30;;;21.30;73.90;;;;;;5039338;28;20389;-70
2022/09/16 09:05:52;;;;;;;1.13;1.13;;;21.30;73.90;;;;;;5037793;28;20234;-70
2022/09/16 09:08:32;;;;;;;1.48;1.38;;;21.30;73.80;;;;;;5037158;28;20329;-70
2022/09/16 09:11:24;;;;;;;1.40;1.30;;;21.30;73.70;;;;;;5036354;28;20722;-70
2022/09/16 09:14:36;;;;;;;1.20;1.20;;;21.30;74.50;;;;;;5078032;28;20188;-70
2022/09/16 09:17:35;;;;;;;1.45;1.30;;;21.30;73.70;;;;;;5056331;28;20213;-70
2022/09/16 09:20:43;;;;;;;1.30;1.20;;;21.30;73.70;;;;;;5057026;28;20197;-70
2022/09/16 09:23:28;;;;;;;1.13;1.13;;;21.30;73.80;;;;;;5055835;28;20198;-69
2022/09/16 09:26:42;;;;;;;1.20;1.10;;;21.30;73.60;;;;;;5055238;28;20191;-69
2022/09/16 09:29:32;;;;;;;1.30;1.20;;;21.30;73.70;;;;;;5054787;28;20207;-69
2022/09/16 09:32:30;;;;;;;1.30;1.20;;;21.30;73.60;;;;;;5055227;28;20221;-70
2022/09/16 09:35:20;;;;;;;1.35;1.17;;;21.30;73.50;;;;;;5056428;28;20166;-70
2022/09/16 09:38:07;;;;;;;1.15;1.10;;;21.30;73.40;;;;;;5071704;28;20185;-70
2022/09/16 09:40:42;;;;;;;1.00;0.90;;;21.30;73.40;;;;;;5054850;28;20190;-69
2022/09/16 09:43:34;;;;;;;1.52;1.30;;;21.30;73.50;;;;;;5037787;28;20221;-70
2022/09/16 09:46:25;;;;;;;1.35;1.02;;;21.30;73.50;;;;;;5037027;28;20195;-70
2022/09/16 09:49:12;;;;;;;1.13;1.02;;;21.30;73.30;;;;;;5036000;28;20176;-70
2022/09/16 09:51:50;;;;;;;1.50;1.40;;;21.30;73.10;;;;;;5036707;28;20199;-70
2022/09/16 09:54:25;;;;;;;1.15;1.00;;;21.30;73.20;;;;;;5034450;28;20176;-70
2022/09/16 09:56:56;;;;;;;2.00;1.25;;;21.30;73.10;;;;;;5047384;28;20187;-70
2022/09/16 09:59:47;;;;;;;0.90;0.90;;;21.30;73.00;;;;;;5033989;28;20575;-70
2022/09/16 10:02:18;;;;;;;1.05;1.05;;;21.30;72.80;;;;;;5018006;28;20232;-70
2022/09/16 10:04:44;;;;;;;1.55;1.10;;;21.30;72.90;;;;;;5000568;28;20683;-70
2022/09/16 10:07:22;;;;;;;1.08;1.08;;;21.40;72.90;;;;;;5016927;28;20181;-70
2022/09/16 10:10:10;;;;;;;1.08;0.98;;;21.30;72.70;;;;;;5016537;28;20179;-70
2022/09/16 10:12:36;;;;;;;1.10;1.00;;;21.30;72.60;;;;;;5044446;28;20214;-70
2022/09/16 10:15:03;;;;;;;1.35;1.20;;;21.30;73.40;;;;;;5047682;28;20240;-70
2022/09/16 10:17:31;;;;;;;0.90;0.90;;;21.30;72.50;;;;;;5056505;28;20194;-70
2022/09/16 10:20:25;;;;;;;1.00;0.88;;;21.30;72.80;;;;;;5057300;28;20277;-70
2022/09/16 10:23:14;;;;;;;1.23;1.10;;;21.30;72.80;;;;;;5052013;28;20187;-70
2022/09/16 10:25:41;;;;;;;1.13;1.00;;;21.30;72.60;;;;;;5033370;28;20642;-70
2022/09/16 10:28:25;;;;;;;0.95;0.80;;;21.30;72.50;;;;;;5035313;28;20183;-70
2022/09/16 10:30:55;;;;;;;0.88;0.80;;;21.30;72.40;;;;;;5053561;28;20199;-70
2022/09/16 10:33:35;;;;;;;1.30;1.20;;;21.30;72.30;;;;;;5038667;28;20187;-70
2022/09/16 10:36:07;;;;;;;0.90;0.90;;;21.30;72.50;;;;;;5071410;28;20179;-70
2022/09/16 10:38:43;;;;;;;0.70;0.70;;;21.30;72.30;;;;;;5038637;28;20163;-70
2022/09/16 10:41:22;;;;;;;1.13;1.05;;;21.30;72.40;;;;;;5074445;28;20241;-70
2022/09/16 10:44:15;;;;;;;1.40;1.30;;;21.30;72.50;;;;;;5051221;28;20221;-70
2022/09/16 10:47:17;;;;;;;1.40;1.30;;;21.30;72.30;;;;;;5059411;28;20194;-70
2022/09/16 10:49:49;;;;;;;2.50;1.75;;;21.30;72.20;;;;;;5054062;28;20315;-68
2022/09/16 10:52:16;;;;;;;2.15;1.60;;;21.30;72.30;;;;;;5044371;28;20222;-70
2022/09/16 10:54:44;;;;;;;1.95;1.73;;;21.40;72.80;;;;;;5043399;28;20195;-70
2022/09/16 10:57:43;;;;;;;2.83;2.40;;;21.30;72.50;;;;;;5020784;28;20187;-70
2022/09/16 11:00:15;;;;;;;3.63;2.60;;;21.40;72.50;;;;;;5015791;28;20195;-70
2022/09/16 11:03:15;;;;;;;4.22;3.08;;;21.40;72.50;;;;;;5038892;28;20219;-70
2022/09/16 11:06:09;;;;;;;4.07;3.00;;;21.40;72.50;;;;;;5034386;28;20212;-70
2022/09/16 11:09:01;;;;;;;3.85;3.20;;;21.40;72.40;;;;;;5034203;28;20195;-70
2022/09/16 11:11:51;;;;;;;6.10;4.10;;;21.40;72.80;;;;;;5033959;28;20215;-69
2022/09/16 11:14:29;;;;;;;5.20;3.95;;;21.40;72.40;;;;;;5032861;28;20183;-69
2022/09/16 11:17:13;;;;;;;6.85;4.57;;;21.40;72.40;;;;;;5033049;28;20193;-69
2022/09/16 11:20:16;;;;;;;6.65;4.40;;;21.40;72.50;;;;;;5035829;28;20685;-70
2022/09/16 11:22:58;;;;;;;7.18;5.10;;;21.40;72.40;;;;;;5036688;28;20198;-70
2022/09/16 11:26:05;;;;;;;7.07;4.97;;;21.40;72.40;;;;;;5036227;28;20257;-70
2022/09/16 11:29:03;;;;;;;7.07;5.03;;;21.40;72.70;;;;;;5037845;28;20211;-70
2022/09/16 11:31:57;;;;;;;9.60;6.05;;;21.40;72.20;;;;;;5017854;28;20275;-70
2022/09/16 11:34:47;;;;;;;7.40;5.38;;;21.40;72.10;;;;;;5067212;28;20205;-71
2022/09/16 11:37:46;;;;;;;8.98;6.07;;;21.40;72.60;;;;;;5036983;28;20194;-71
2022/09/16 11:40:26;;;;;;;9.07;6.22;;;21.40;72.70;;;;;;5035778;28;20187;-71
2022/09/16 11:43:33;;;;;;;8.32;5.88;;;21.40;72.30;;;;;;5027564;28;20187;-71
2022/09/16 11:46:26;;;;;;;10.32;6.50;;;21.40;72.20;;;;;;5055999;28;20654;-70
2022/09/16 11:49:17;;;;;;;9.63;6.90;;;21.40;72.60;;;;;;5039545;28;20224;-71
2022/09/16 11:52:40;;;;;;;8.88;6.63;;;21.40;72.40;;;;;;5072856;28;20263;-71
2022/09/16 11:55:21;;;;;;;10.30;6.90;;;21.40;72.10;;;;;;5057362;28;20264;-72
2022/09/16 11:57:56;;;;;;;11.10;7.57;;;21.40;72.20;;;;;;5056586;28;20325;-71
2022/09/16 12:00:22;;;;;;;9.93;6.95;;;21.40;72.40;;;;;;5057412;28;20213;-71
2022/09/16 12:03:33;;;;;;;10.68;7.38;;;21.50;72.10;;;;;;5056323;28;20171;-71
2022/09/16 12:06:10;;;;;;;10.95;7.65;;;21.40;72.50;;;;;;5055562;28;20197;-71
2022/09/16 12:09:03;;;;;;;9.90;7.55;;;21.40;72.20;;;;;;5054597;28;20650;-70
2022/09/16 12:11:58;;;;;;;10.57;7.53;;;21.50;72.10;;;;;;5028486;28;20218;-71
2022/09/16 12:14:57;;;;;;;11.27;7.60;;;21.40;71.90;;;;;;5050810;28;20190;-70
2022/09/16 12:17:31;;;;;;;10.40;7.72;;;21.50;72.40;;;;;;5057713;28;20191;-70
2022/09/16 12:20:19;;;;;;;11.15;7.65;;;21.50;71.90;;;;;;5056149;28;20266;-71
2022/09/16 12:23:13;;;;;;;12.57;7.40;;;21.40;72.10;;;;;;5057023;28;20198;-71
2022/09/16 12:26:01;;;;;;;9.57;7.15;;;21.50;72.10;;;;;;5071868;28;20274;-70
2022/09/16 12:28:51;;;;;;;9.35;7.47;;;21.50;73.00;;;;;;5056242;28;20220;-71
2022/09/16 12:31:28;;;;;;;12.07;7.82;;;21.40;71.70;;;;;;5055434;28;20591;-72
2022/09/16 12:34:00;;;;;;;9.27;6.93;;;21.40;72.40;;;;;;5054729;28;20194;-71
2022/09/16 12:36:34;;;;;;;9.20;6.93;;;21.50;72.10;;;;;;5071105;28;20240;-71
2022/09/16 12:39:00;;;;;;;12.75;8.10;;;21.40;71.50;;;;;;5047160;28;20277;-71
2022/09/16 12:41:56;;;;;;;11.85;7.82;;;21.50;72.00;;;;;;5029272;28;20230;-71
2022/09/16 12:44:42;;;;;;;11.50;7.60;;;21.50;71.50;;;;;;5049643;28;20210;-72
2022/09/16 12:47:39;;;;;;;10.85;8.05;;;21.40;71.50;;;;;;5054806;28;20171;-71
2022/09/16 12:50:51;;;;;;;10.43;7.03;;;21.40;71.40;;;;;;5059032;28;20229;-71
2022/09/16 12:53:59;;;;;;;10.35;7.53;;;21.40;71.70;;;;;;5057255;28;20236;-72
2022/09/16 12:56:30;;;;;;;9.75;6.88;;;21.40;71.40;;;;;;5057121;28;20220;-71
2022/09/16 12:59:18;;;;;;;9.68;6.53;;;21.40;71.50;;;;;;5056892;28;20187;-71
2022/09/16 13:01:52;;;;;;;8.30;6.40;;;21.40;71.30;;;;;;5057749;28;20222;-71
2022/09/16 13:04:38;;;;;;;10.40;6.68;;;21.40;71.20;;;;;;5039201;28;20203;-71
2022/09/16 13:07:05;;;;;;;10.27;6.50;;;21.40;70.80;;;;;;5035573;28;20184;-70
2022/09/16 13:09:39;;;;;;;10.02;7.10;;;21.40;71.30;;;;;;5036010;28;20654;-71
2022/09/16 13:12:18;;;;;;;8.48;6.15;;;21.40;70.40;;;;;;5044640;28;20213;-71
2022/09/16 13:14:50;;;;;;;10.13;6.78;;;21.50;71.00;;;;;;5053532;28;20178;-71
2022/09/16 13:17:32;;;;;;;6.97;5.80;;;21.40;70.70;;;;;;5056522;28;20223;-70
2022/09/16 13:20:16;;;;;;;8.43;5.55;;;21.40;71.50;;;;;;5072521;28;20179;-70
2022/09/16 13:23:04;;;;;;;7.72;5.47;;;21.40;70.70;;;;;;5072189;28;20669;-71
2022/09/16 13:25:42;;;;;;;7.32;5.30;;;21.40;70.20;;;;;;5055668;28;20218;-71
2022/09/16 13:28:32;;;;;;;8.30;5.82;;;21.40;70.70;;;;;;5055784;28;20190;-71
2022/09/16 13:31:10;;;;;;;8.15;5.05;;;21.40;70.50;;;;;;5056044;28;20285;-70
2022/09/16 13:33:37;;;;;;;7.93;5.43;;;21.40;70.50;;;;;;5055233;28;20277;-70
2022/09/16 13:36:36;;;;;;;7.00;5.15;;;21.40;69.90;;;;;;5072036;28;20185;-71
2022/09/16 13:39:09;;;;;;;5.82;4.50;;;21.40;70.40;;;;;;5038353;28;20202;-71